Time;durP1;ratioP1;P1;durP2;ratioP2;P2;SDS_P1;SDS_P2;PMS_P1;PMS_P2;Temp;Humidity;BMP_temperature;BMP_pressure;BME280_temperature;BME280_humidity;BME280_pressure;Samples;Min_cycle;Max_cycle;Signal;HPM_P1;HPM_P2
2022/07/18 00:01:41;;;;;;;10.88;4.85;;;20.00;59.00;;;;;;5061405;28;20107;-70
2022/07/18 00:04:07;;;;;;;11.48;6.15;;;19.90;58.90;;;;;;5058992;28;20036;-70
2022/07/18 00:06:33;;;;;;;8.02;4.78;;;19.80;58.90;;;;;;5060814;28;20090;-70
2022/07/18 00:08:59;;;;;;;10.85;4.90;;;19.80;59.10;;;;;;5062569;28;20574;-69
2022/07/18 00:11:25;;;;;;;13.20;5.85;;;19.70;59.10;;;;;;5060578;28;20918;-70
2022/07/18 00:13:51;;;;;;;10.10;5.00;;;19.70;59.40;;;;;;5062456;28;20036;-69
2022/07/18 00:16:17;;;;;;;8.82;4.88;;;19.70;59.60;;;;;;5060717;28;20040;-69
2022/07/18 00:18:44;;;;;;;8.65;4.75;;;19.70;59.80;;;;;;5059587;28;20036;-70
2022/07/18 00:21:10;;;;;;;11.25;5.05;;;19.70;59.80;;;;;;5060066;28;20131;-70
2022/07/18 00:23:35;;;;;;;10.18;4.78;;;19.60;59.80;;;;;;5055585;28;20472;-69
2022/07/18 00:26:02;;;;;;;11.68;5.55;;;19.60;59.60;;;;;;5059075;28;20041;-71
2022/07/18 00:28:28;;;;;;;9.65;4.85;;;19.60;60.00;;;;;;5060465;28;20032;-69
2022/07/18 00:30:54;;;;;;;9.07;5.20;;;19.60;60.00;;;;;;5065152;28;20078;-70
2022/07/18 00:33:19;;;;;;;8.82;4.90;;;19.50;59.90;;;;;;5061643;28;20067;-69
2022/07/18 00:35:45;;;;;;;9.90;5.32;;;19.50;60.20;;;;;;5065941;28;20048;-69
2022/07/18 00:38:11;;;;;;;8.95;5.50;;;19.50;60.20;;;;;;5060113;28;20037;-70
2022/07/18 00:40:37;;;;;;;9.70;5.35;;;19.40;60.30;;;;;;5060215;28;20035;-69
2022/07/18 00:43:03;;;;;;;10.27;4.95;;;19.40;60.20;;;;;;5065573;28;20082;-68
2022/07/18 00:45:29;;;;;;;8.63;4.60;;;19.30;60.30;;;;;;5063153;28;20523;-69
2022/07/18 00:47:55;;;;;;;7.97;4.88;;;19.30;60.30;;;;;;5064313;28;20463;-70
2022/07/18 00:50:22;;;;;;;9.05;4.45;;;19.30;60.50;;;;;;5060077;28;20525;-69
2022/07/18 00:52:48;;;;;;;10.07;5.60;;;19.20;60.60;;;;;;5067157;28;20500;-68
2022/07/18 00:55:14;;;;;;;11.63;5.22;;;19.30;60.70;;;;;;5061809;28;20450;-70
2022/07/18 00:57:41;;;;;;;9.32;4.70;;;19.20;60.70;;;;;;5067141;28;20103;-69
2022/07/18 01:02:54;;;;;;;9.07;5.03;;;19.10;60.80;;;;;;5062695;28;20070;-69
2022/07/18 01:05:20;;;;;;;8.10;4.90;;;19.00;61.00;;;;;;5063685;28;20048;-69
2022/07/18 01:07:46;;;;;;;10.57;4.45;;;19.00;61.10;;;;;;5064823;28;20657;-70
2022/07/18 01:10:12;;;;;;;8.05;5.25;;;18.90;61.10;;;;;;5063073;28;20040;-69
2022/07/18 01:12:38;;;;;;;11.75;5.18;;;18.90;61.00;;;;;;5061825;28;20478;-69
2022/07/18 01:15:05;;;;;;;14.23;5.13;;;18.80;61.20;;;;;;5060045;28;20533;-69
2022/07/18 01:17:31;;;;;;;10.55;5.05;;;18.70;61.60;;;;;;5060843;28;20163;-70
2022/07/18 01:19:56;;;;;;;11.27;4.70;;;18.70;61.60;;;;;;5060131;28;20032;-68
2022/07/18 01:22:22;;;;;;;10.80;4.88;;;18.70;61.70;;;;;;5057635;28;20036;-68
2022/07/18 01:24:48;;;;;;;8.00;4.57;;;18.60;61.50;;;;;;5060158;28;20040;-69
2022/07/18 01:27:19;;;;;;;8.88;4.90;;;18.60;61.40;;;;;;5057211;28;20483;-69
2022/07/18 01:29:46;;;;;;;9.48;4.43;;;18.60;61.50;;;;;;5061219;28;20033;-68
2022/07/18 01:32:13;;;;;;;8.60;4.65;;;18.60;61.80;;;;;;5058734;28;20620;-69
2022/07/18 01:34:39;;;;;;;8.95;4.20;;;18.70;61.60;;;;;;5059093;28;20044;-68
2022/07/18 01:37:05;;;;;;;7.90;4.75;;;18.60;61.50;;;;;;5060273;28;20104;-69
2022/07/18 01:39:31;;;;;;;7.80;4.43;;;18.60;61.50;;;;;;5058182;28;20318;-69
2022/07/18 01:42:03;;;;;;;8.65;4.32;;;18.60;61.50;;;;;;5063330;28;20127;-69
2022/07/18 01:44:30;;;;;;;8.57;4.32;;;18.60;62.00;;;;;;5071888;28;20036;-70
2022/07/18 01:46:56;;;;;;;7.00;3.88;;;18.40;62.30;;;;;;5060210;28;20035;-69
2022/07/18 01:49:22;;;;;;;9.10;4.20;;;18.30;62.80;;;;;;5059708;28;20040;-69
2022/07/18 01:51:50;;;;;;;10.35;4.72;;;18.30;62.90;;;;;;5061039;28;20029;-69
2022/07/18 01:54:16;;;;;;;7.32;4.38;;;18.30;63.20;;;;;;5059574;28;20123;-68
2022/07/18 01:56:41;;;;;;;8.20;4.13;;;18.30;63.30;;;;;;5053980;28;20086;-69
2022/07/18 01:59:07;;;;;;;8.52;4.28;;;18.20;63.20;;;;;;5059965;28;20029;-68
2022/07/18 02:01:33;;;;;;;7.95;4.78;;;18.20;63.20;;;;;;5060357;28;20088;-69
2022/07/18 02:03:58;;;;;;;9.20;4.40;;;18.20;63.10;;;;;;5061037;28;20501;-69
2022/07/18 02:06:24;;;;;;;10.07;4.50;;;18.20;63.30;;;;;;5054748;28;20365;-70
2022/07/18 02:08:50;;;;;;;11.52;4.68;;;18.10;63.50;;;;;;5054560;28;20185;-69
2022/07/18 02:11:15;;;;;;;10.13;4.80;;;18.10;63.80;;;;;;5060086;28;20040;-69
2022/07/18 02:13:41;;;;;;;7.97;4.60;;;18.10;63.90;;;;;;5059846;28;20442;-69
2022/07/18 02:16:07;;;;;;;8.38;5.10;;;18.10;64.10;;;;;;5063197;28;20465;-70
2022/07/18 02:18:33;;;;;;;8.98;4.70;;;18.10;64.20;;;;;;5059253;28;20039;-69
2022/07/18 02:20:59;;;;;;;9.82;4.65;;;18.10;64.30;;;;;;5065983;28;20036;-68
2022/07/18 02:23:25;;;;;;;8.07;4.63;;;18.10;64.50;;;;;;5065150;28;20387;-68
2022/07/18 02:25:51;;;;;;;7.78;4.35;;;18.10;64.50;;;;;;5060668;28;20035;-69
2022/07/18 02:28:16;;;;;;;11.20;5.13;;;18.00;64.60;;;;;;5063825;28;20068;-70
2022/07/18 02:30:42;;;;;;;10.25;5.07;;;18.10;64.70;;;;;;5063270;28;20044;-69
2022/07/18 02:33:08;;;;;;;8.98;5.30;;;18.00;64.80;;;;;;5061548;28;20049;-69
2022/07/18 02:35:33;;;;;;;9.15;4.97;;;18.00;64.90;;;;;;5061921;28;20041;-69
2022/07/18 02:37:59;;;;;;;8.20;4.80;;;18.00;65.00;;;;;;5061830;28;20067;-69
2022/07/18 02:40:25;;;;;;;7.70;4.18;;;18.00;65.20;;;;;;5067045;28;20032;-69
2022/07/18 02:42:51;;;;;;;10.93;5.13;;;18.00;65.20;;;;;;5065468;28;20470;-69
2022/07/18 02:45:16;;;;;;;9.50;4.85;;;17.90;65.30;;;;;;5062959;28;20458;-69
2022/07/18 02:47:42;;;;;;;10.35;5.03;;;17.90;65.20;;;;;;5064213;28;20522;-68
2022/07/18 02:50:09;;;;;;;10.93;5.28;;;17.80;65.40;;;;;;5059630;28;20387;-70
2022/07/18 02:52:35;;;;;;;9.52;4.85;;;17.80;65.40;;;;;;5059464;28;20033;-69
2022/07/18 02:55:01;;;;;;;11.18;5.10;;;17.80;65.30;;;;;;5064111;28;20063;-69
2022/07/18 02:57:27;;;;;;;8.48;4.88;;;17.80;65.40;;;;;;5063822;28;20044;-69
2022/07/18 02:59:53;;;;;;;8.35;5.43;;;17.80;65.50;;;;;;5063165;28;20042;-69
2022/07/18 03:02:19;;;;;;;8.18;4.65;;;17.80;65.70;;;;;;5062473;28;20078;-69
2022/07/18 03:04:45;;;;;;;11.70;5.00;;;17.80;65.90;;;;;;5064112;28;20447;-70
2022/07/18 03:07:10;;;;;;;9.75;4.85;;;17.70;66.10;;;;;;5064154;28;20040;-70
2022/07/18 03:09:36;;;;;;;9.73;5.18;;;17.70;66.10;;;;;;5063487;28;20466;-69
2022/07/18 03:12:02;;;;;;;8.57;4.95;;;17.70;66.30;;;;;;5063927;28;20025;-69
2022/07/18 03:14:28;;;;;;;10.63;4.85;;;17.70;66.30;;;;;;5060826;28;20029;-69
2022/07/18 03:16:53;;;;;;;8.20;5.10;;;17.70;66.40;;;;;;5063414;28;20845;-68
2022/07/18 03:19:19;;;;;;;9.98;5.18;;;17.60;66.30;;;;;;5067786;28;20582;-68
2022/07/18 03:21:45;;;;;;;8.98;5.13;;;17.60;66.50;;;;;;5062647;28;20042;-68
2022/07/18 03:24:13;;;;;;;8.23;4.63;;;17.60;66.60;;;;;;5058923;28;20032;-70
2022/07/18 03:26:40;;;;;;;10.93;5.50;;;17.60;66.60;;;;;;5054971;28;20037;-69
2022/07/18 03:29:05;;;;;;;10.30;5.05;;;17.50;66.70;;;;;;5063649;28;20081;-68
2022/07/18 03:31:31;;;;;;;9.80;5.15;;;17.50;66.80;;;;;;5059818;28;20037;-68
2022/07/18 03:33:57;;;;;;;10.63;5.32;;;17.40;66.90;;;;;;5065109;28;20127;-68
2022/07/18 03:36:23;;;;;;;13.27;5.80;;;17.40;67.10;;;;;;5065249;28;20056;-68
2022/07/18 03:38:48;;;;;;;7.55;4.90;;;17.40;67.20;;;;;;5062884;28;20040;-69
2022/07/18 03:41:14;;;;;;;11.38;6.03;;;17.40;67.30;;;;;;5058133;28;20045;-68
2022/07/18 03:43:40;;;;;;;11.25;5.70;;;17.30;67.20;;;;;;5062567;28;20399;-69
2022/07/18 03:46:06;;;;;;;11.73;6.05;;;17.30;67.50;;;;;;5063613;28;20056;-69
2022/07/18 03:48:32;;;;;;;11.82;5.53;;;17.20;67.40;;;;;;5055667;28;20028;-70
2022/07/18 03:50:59;;;;;;;14.85;5.68;;;17.10;67.60;;;;;;5065288;28;20028;-68
2022/07/18 03:53:25;;;;;;;13.00;6.00;;;17.10;67.60;;;;;;5065567;28;20033;-69
2022/07/18 03:55:50;;;;;;;14.63;6.15;;;17.10;67.30;;;;;;5059294;28;20067;-69
2022/07/18 03:58:16;;;;;;;15.40;6.40;;;17.10;66.90;;;;;;5062053;28;20037;-69
2022/07/18 04:00:42;;;;;;;19.50;6.20;;;17.10;67.10;;;;;;5065280;28;20439;-69
2022/07/18 04:03:07;;;;;;;19.13;6.30;;;17.10;66.90;;;;;;5064795;28;20074;-69
2022/07/18 04:05:33;;;;;;;11.93;5.32;;;17.10;67.00;;;;;;5063531;28;20036;-69
2022/07/18 04:07:59;;;;;;;17.48;6.63;;;17.10;67.20;;;;;;5065143;28;20033;-70
2022/07/18 04:10:25;;;;;;;18.15;6.07;;;17.10;67.20;;;;;;5062275;28;20468;-69
2022/07/18 04:12:55;;;;;;;16.27;5.85;;;17.20;67.20;;;;;;5066370;28;20043;-69
2022/07/18 04:15:22;;;;;;;16.90;6.32;;;17.20;67.10;;;;;;5062805;28;20044;-69
2022/07/18 04:17:48;;;;;;;13.52;5.53;;;17.20;67.10;;;;;;5064556;28;20047;-69
2022/07/18 04:20:15;;;;;;;18.00;5.95;;;17.30;67.10;;;;;;5059591;28;20036;-69
2022/07/18 04:23:04;;;;;;;15.30;5.82;;;17.30;67.20;;;;;;5059419;28;20194;-68
2022/07/18 04:25:35;;;;;;;10.35;5.07;;;17.30;67.30;;;;;;5053366;28;20723;-69
2022/07/18 04:28:01;;;;;;;11.48;5.47;;;17.40;67.40;;;;;;5060282;28;20039;-69
2022/07/18 04:30:28;;;;;;;10.73;5.38;;;17.40;67.40;;;;;;5058238;28;20403;-69
2022/07/18 04:32:54;;;;;;;11.98;5.50;;;17.40;67.70;;;;;;5059196;28;20052;-69
2022/07/18 04:35:21;;;;;;;14.63;5.45;;;17.40;68.00;;;;;;5061056;28;20131;-69
2022/07/18 04:37:46;;;;;;;12.10;5.72;;;17.50;68.50;;;;;;5058404;28;20128;-68
2022/07/18 04:40:13;;;;;;;9.85;5.28;;;17.60;68.50;;;;;;5065206;28;20062;-69
2022/07/18 04:42:39;;;;;;;9.85;5.72;;;17.50;68.50;;;;;;5056792;28;20094;-69
2022/07/18 04:45:05;;;;;;;8.27;4.82;;;17.60;68.80;;;;;;5069207;28;20022;-68
2022/07/18 04:47:31;;;;;;;9.02;5.88;;;17.70;68.50;;;;;;5060350;28;20024;-69
2022/07/18 04:49:56;;;;;;;11.23;5.40;;;17.80;68.50;;;;;;5060619;28;20537;-70
2022/07/18 04:52:22;;;;;;;10.43;5.43;;;17.90;68.00;;;;;;5058277;28;20472;-69
2022/07/18 04:54:48;;;;;;;9.35;5.30;;;18.10;67.60;;;;;;5071195;28;20316;-70
2022/07/18 04:57:14;;;;;;;10.02;5.35;;;18.20;67.20;;;;;;5063479;28;20041;-69
2022/07/18 04:59:44;;;;;;;9.73;5.40;;;18.30;66.70;;;;;;5061167;28;20039;-69
2022/07/18 05:02:10;;;;;;;9.10;5.18;;;18.40;66.60;;;;;;5066369;28;20043;-70
2022/07/18 05:04:37;;;;;;;11.60;6.15;;;18.40;66.50;;;;;;5063912;28;20020;-71
2022/07/18 05:07:04;;;;;;;10.77;5.95;;;18.40;66.30;;;;;;5055170;28;20135;-69
2022/07/18 05:09:30;;;;;;;12.60;5.78;;;18.60;66.40;;;;;;5064392;28;20041;-69
2022/07/18 05:11:55;;;;;;;10.38;5.47;;;18.60;66.00;;;;;;5066178;28;20039;-69
2022/07/18 05:14:21;;;;;;;10.75;5.00;;;18.70;65.40;;;;;;5065130;28;20044;-70
2022/07/18 05:16:48;;;;;;;10.27;5.50;;;18.80;64.80;;;;;;5066689;28;20046;-69
2022/07/18 05:19:17;;;;;;;9.85;5.95;;;19.00;64.60;;;;;;5058084;28;20040;-69
2022/07/18 05:21:44;;;;;;;8.55;5.45;;;19.10;63.80;;;;;;5060587;28;20458;-70
2022/07/18 05:24:10;;;;;;;13.85;6.90;;;19.20;63.50;;;;;;5059302;28;20028;-71
2022/07/18 05:26:35;;;;;;;14.57;6.32;;;19.30;63.20;;;;;;5059826;28;20589;-70
2022/07/18 05:29:01;;;;;;;10.75;5.60;;;19.40;62.50;;;;;;5066270;28;20137;-70
2022/07/18 05:31:27;;;;;;;11.65;5.65;;;20.20;61.10;;;;;;5060827;28;20756;-69
2022/07/18 05:33:52;;;;;;;9.75;5.90;;;21.40;57.70;;;;;;5056561;28;20166;-69
2022/07/18 05:36:18;;;;;;;12.07;5.85;;;22.40;54.70;;;;;;5059786;28;20043;-70
2022/07/18 05:38:44;;;;;;;9.48;5.53;;;23.40;52.40;;;;;;5062303;28;20049;-70
2022/07/18 05:41:09;;;;;;;13.15;5.47;;;24.00;50.30;;;;;;5059514;28;20036;-69
2022/07/18 05:43:35;;;;;;;8.95;4.82;;;24.60;48.90;;;;;;5065548;28;20323;-70
2022/07/18 05:46:01;;;;;;;14.32;5.35;;;24.80;48.30;;;;;;5059798;28;20039;-70
2022/07/18 05:48:27;;;;;;;10.85;5.35;;;25.20;46.70;;;;;;5060428;28;20085;-70
2022/07/18 05:50:52;;;;;;;10.93;5.30;;;25.50;45.50;;;;;;5064771;28;20368;-69
2022/07/18 05:53:18;;;;;;;13.50;5.35;;;25.60;44.50;;;;;;5065346;28;20029;-71
2022/07/18 05:55:44;;;;;;;10.38;5.85;;;25.80;43.60;;;;;;5070234;28;20032;-68
2022/07/18 05:58:09;;;;;;;12.30;5.75;;;25.60;43.90;;;;;;5062655;28;20531;-69
2022/07/18 06:00:35;;;;;;;14.38;6.00;;;25.50;44.10;;;;;;5063661;28;20035;-69
2022/07/18 06:03:01;;;;;;;11.73;6.18;;;25.20;45.10;;;;;;5068664;28;20571;-69
2022/07/18 06:05:27;;;;;;;10.98;5.82;;;24.90;46.00;;;;;;5062151;28;20414;-69
2022/07/18 06:07:54;;;;;;;12.45;5.82;;;24.30;48.00;;;;;;5064525;28;20067;-68
2022/07/18 06:10:21;;;;;;;10.80;5.85;;;23.80;49.40;;;;;;5063312;28;20053;-69
2022/07/18 06:12:46;;;;;;;13.55;6.25;;;23.50;50.70;;;;;;5061028;28;20140;-69
2022/07/18 06:15:13;;;;;;;16.70;7.05;;;23.10;51.60;;;;;;5063023;28;20047;-68
2022/07/18 06:17:38;;;;;;;15.50;6.53;;;22.80;52.90;;;;;;5064687;28;20532;-68
2022/07/18 06:20:06;;;;;;;15.63;6.20;;;22.60;53.50;;;;;;5067202;28;20437;-68
2022/07/18 06:22:31;;;;;;;13.52;6.28;;;22.60;54.30;;;;;;5063326;28;20476;-69
2022/07/18 06:24:57;;;;;;;11.93;6.60;;;22.60;54.20;;;;;;5064981;28;20191;-68
2022/07/18 06:27:22;;;;;;;12.68;7.25;;;22.70;54.30;;;;;;5062524;28;20461;-69
2022/07/18 06:29:48;;;;;;;11.10;5.95;;;22.70;53.50;;;;;;5062092;28;20487;-69
2022/07/18 06:32:14;;;;;;;13.85;6.88;;;22.80;53.60;;;;;;5060895;28;20036;-68
2022/07/18 06:34:39;;;;;;;12.35;6.25;;;22.80;53.20;;;;;;5064688;28;20047;-70
2022/07/18 06:37:05;;;;;;;10.80;6.10;;;22.70;52.90;;;;;;5060152;28;20083;-69
2022/07/18 06:39:31;;;;;;;11.75;6.18;;;22.80;52.40;;;;;;5068943;28;20417;-69
2022/07/18 06:41:56;;;;;;;14.95;6.25;;;22.90;51.80;;;;;;5063599;28;20067;-69
2022/07/18 06:44:22;;;;;;;12.57;6.82;;;23.00;51.60;;;;;;5069129;28;20024;-69
2022/07/18 06:46:47;;;;;;;11.57;5.22;;;23.10;51.30;;;;;;5061143;28;20032;-69
2022/07/18 06:49:15;;;;;;;15.63;6.13;;;23.30;51.10;;;;;;5062002;28;20032;-69
2022/07/18 06:51:41;;;;;;;14.93;6.85;;;23.40;51.40;;;;;;5062001;28;20577;-70
2022/07/18 06:54:06;;;;;;;11.15;5.72;;;23.60;50.60;;;;;;5065565;28;20032;-70
2022/07/18 06:56:32;;;;;;;13.32;5.15;;;23.70;50.40;;;;;;5068118;28;20041;-69
2022/07/18 06:58:57;;;;;;;13.20;5.95;;;23.80;49.50;;;;;;5065973;28;20115;-69
2022/07/18 07:01:24;;;;;;;11.45;4.80;;;24.00;48.70;;;;;;5062123;28;20072;-69
2022/07/18 07:03:50;;;;;;;14.07;5.45;;;24.10;49.40;;;;;;5068878;28;20032;-70
2022/07/18 07:06:16;;;;;;;12.52;5.80;;;24.30;48.50;;;;;;5066169;28;20181;-70
2022/07/18 07:08:42;;;;;;;14.68;5.20;;;24.50;49.00;;;;;;5062689;28;20040;-68
2022/07/18 07:11:08;;;;;;;11.40;4.25;;;24.50;48.30;;;;;;5058949;28;20113;-69
2022/07/18 07:13:34;;;;;;;11.00;4.50;;;24.60;48.10;;;;;;5062069;28;20143;-69
2022/07/18 07:16:00;;;;;;;10.90;4.53;;;24.70;48.20;;;;;;5062785;28;20499;-71
2022/07/18 07:18:25;;;;;;;10.65;4.25;;;24.80;47.30;;;;;;5063904;28;20032;-69
2022/07/18 07:20:51;;;;;;;10.80;4.03;;;24.80;47.30;;;;;;5064637;28;20035;-69
2022/07/18 07:23:17;;;;;;;10.93;4.43;;;25.00;47.50;;;;;;5057745;28;20028;-69
2022/07/18 07:25:42;;;;;;;10.10;4.38;;;25.20;46.80;;;;;;5056153;28;20033;-71
2022/07/18 07:28:08;;;;;;;10.27;4.28;;;25.50;47.10;;;;;;5065298;28;20106;-70
2022/07/18 07:30:34;;;;;;;12.75;3.92;;;25.70;46.40;;;;;;5062565;28;20067;-70
2022/07/18 07:33:01;;;;;;;11.13;3.50;;;25.80;45.80;;;;;;5056414;28;20036;-74
2022/07/18 07:35:27;;;;;;;7.97;3.20;;;26.00;44.20;;;;;;5062975;28;20041;-73
2022/07/18 07:37:56;;;;;;;12.70;3.42;;;26.00;44.30;;;;;;5062759;28;20041;-71
2022/07/18 07:40:26;;;;;;;10.00;2.90;;;26.10;43.30;;;;;;5063948;28;20263;-71
2022/07/18 07:43:03;;;;;;;11.02;3.17;;;26.30;43.60;;;;;;5070043;28;20493;-71
2022/07/18 07:45:29;;;;;;;9.40;3.45;;;26.50;43.00;;;;;;5058100;28;20043;-74
2022/07/18 07:47:54;;;;;;;8.70;3.10;;;26.70;42.30;;;;;;5064246;28;20029;-71
2022/07/18 07:50:20;;;;;;;9.30;3.10;;;27.00;41.90;;;;;;5064316;28;20045;-72
2022/07/18 07:52:46;;;;;;;13.35;3.50;;;27.10;41.50;;;;;;5064549;28;20036;-71
2022/07/18 07:55:12;;;;;;;11.68;3.53;;;27.30;41.40;;;;;;5059264;28;20033;-71
2022/07/18 07:57:38;;;;;;;9.93;2.92;;;27.40;40.80;;;;;;5056247;28;20036;-74
2022/07/18 08:00:07;;;;;;;10.73;2.90;;;27.50;41.10;;;;;;5068563;28;20040;-72
2022/07/18 08:02:33;;;;;;;12.45;3.88;;;27.60;40.90;;;;;;5056271;28;20102;-71
2022/07/18 08:04:59;;;;;;;11.38;4.03;;;27.70;40.60;;;;;;5065999;28;20037;-74
2022/07/18 08:07:24;;;;;;;10.88;3.25;;;27.80;39.70;;;;;;5062805;28;20123;-72
2022/07/18 08:09:50;;;;;;;11.07;3.40;;;28.10;39.80;;;;;;5061021;28;20327;-72
2022/07/18 08:12:16;;;;;;;10.35;4.00;;;28.10;40.20;;;;;;5063349;28;20041;-73
2022/07/18 08:14:42;;;;;;;13.02;3.55;;;28.40;40.00;;;;;;5065031;28;20402;-73
2022/07/18 08:17:11;;;;;;;10.55;4.43;;;28.60;39.70;;;;;;5061778;28;20033;-72
2022/07/18 08:19:36;;;;;;;11.80;3.45;;;28.60;39.40;;;;;;5063365;28;20158;-71
2022/07/18 08:22:02;;;;;;;11.20;3.40;;;28.80;38.80;;;;;;5063214;28;20127;-73
2022/07/18 08:24:28;;;;;;;8.07;3.28;;;29.00;37.80;;;;;;5064577;28;20475;-75
2022/07/18 08:26:53;;;;;;;6.95;2.50;;;29.10;37.80;;;;;;5060931;28;20035;-72
2022/07/18 08:29:19;;;;;;;11.85;2.72;;;29.30;37.60;;;;;;5062933;28;20037;-72
2022/07/18 08:31:45;;;;;;;8.43;2.83;;;29.40;37.10;;;;;;5061150;28;20047;-72
2022/07/18 08:34:10;;;;;;;9.88;2.60;;;29.50;37.10;;;;;;5065669;28;20055;-71
2022/07/18 08:36:36;;;;;;;8.20;2.58;;;29.60;36.30;;;;;;5060895;28;20055;-75
2022/07/18 08:39:02;;;;;;;7.25;2.80;;;29.70;36.20;;;;;;5061994;28;20036;-70
2022/07/18 08:41:28;;;;;;;6.57;2.33;;;29.80;35.90;;;;;;5064744;28;20350;-70
2022/07/18 08:43:55;;;;;;;7.18;2.35;;;29.90;35.80;;;;;;5060040;28;20037;-71
2022/07/18 08:46:22;;;;;;;7.60;2.42;;;30.00;35.20;;;;;;5061559;28;20060;-71
2022/07/18 08:48:51;;;;;;;7.40;2.75;;;30.10;35.40;;;;;;5066066;28;20097;-70
2022/07/18 08:51:18;;;;;;;7.30;2.30;;;30.10;35.20;;;;;;5061525;28;20024;-71
2022/07/18 08:53:47;;;;;;;8.02;2.33;;;30.20;35.10;;;;;;5060893;28;20044;-69
2022/07/18 08:56:13;;;;;;;7.47;2.38;;;30.30;35.00;;;;;;5061676;28;20028;-71
2022/07/18 08:58:39;;;;;;;7.13;2.58;;;30.40;35.00;;;;;;5060431;28;20349;-71
2022/07/18 09:01:06;;;;;;;7.40;2.95;;;30.60;34.00;;;;;;5058276;28;20071;-72
2022/07/18 09:03:32;;;;;;;9.18;3.10;;;30.70;34.40;;;;;;5061546;28;20035;-70
2022/07/18 09:06:06;;;;;;;7.97;2.45;;;30.70;35.10;;;;;;5068028;28;20040;-70
2022/07/18 09:08:32;;;;;;;7.20;2.75;;;30.80;34.10;;;;;;5060622;28;20041;-72
2022/07/18 09:11:00;;;;;;;7.88;2.35;;;31.00;34.00;;;;;;5062982;28;20036;-72
2022/07/18 09:13:40;;;;;;;7.75;2.92;;;31.10;33.50;;;;;;5061981;28;20036;-71
2022/07/18 09:16:11;;;;;;;8.02;2.55;;;31.40;33.80;;;;;;5059564;28;20037;-72
2022/07/18 09:18:45;;;;;;;9.02;2.75;;;31.40;34.00;;;;;;5062747;28;20040;-70
2022/07/18 09:21:18;;;;;;;11.10;2.88;;;31.40;33.20;;;;;;5064418;28;20041;-75
2022/07/18 09:23:48;;;;;;;11.07;2.88;;;31.30;34.00;;;;;;5055742;28;20025;-73
2022/07/18 09:26:44;;;;;;;8.95;2.85;;;31.40;34.00;;;;;;5057329;28;20040;-70
2022/07/18 09:29:17;;;;;;;5.25;2.42;;;31.60;33.70;;;;;;5063471;28;20040;-70
2022/07/18 09:31:50;;;;;;;6.63;2.90;;;31.80;34.30;;;;;;5060460;28;20351;-72
2022/07/18 09:34:35;;;;;;;11.05;2.53;;;32.00;34.00;;;;;;5061933;28;20037;-73
2022/07/18 09:37:01;;;;;;;7.85;2.42;;;31.90;32.40;;;;;;5060805;28;20091;-71
2022/07/18 09:39:27;;;;;;;8.32;2.60;;;32.10;32.50;;;;;;5063808;28;20167;-72
2022/07/18 09:41:52;;;;;;;6.20;2.58;;;32.20;33.10;;;;;;5060571;28;20071;-73
2022/07/18 09:44:19;;;;;;;7.03;2.67;;;32.40;32.60;;;;;;5059925;28;20037;-71
2022/07/18 09:47:02;;;;;;;7.22;2.67;;;32.40;31.80;;;;;;5060803;28;20417;-72
2022/07/18 09:49:40;;;;;;;8.82;2.80;;;32.60;31.90;;;;;;5064386;28;20033;-72
2022/07/18 09:52:11;;;;;;;7.90;2.50;;;32.60;31.90;;;;;;5058933;28;20215;-72
2022/07/18 09:54:41;;;;;;;9.23;2.58;;;32.80;30.60;;;;;;5060471;28;20033;-73
2022/07/18 09:57:08;;;;;;;7.75;2.85;;;33.00;31.30;;;;;;5061063;28;20664;-72
2022/07/18 09:59:37;;;;;;;7.85;2.55;;;33.00;30.50;;;;;;5060568;28;20089;-74
2022/07/18 10:02:06;;;;;;;11.77;2.70;;;33.00;30.20;;;;;;5059606;28;20499;-72
2022/07/18 10:04:32;;;;;;;10.10;2.65;;;33.00;29.30;;;;;;5059792;28;20433;-73
2022/07/18 10:06:57;;;;;;;7.72;2.30;;;33.30;29.50;;;;;;5068878;28;20102;-74
2022/07/18 10:09:23;;;;;;;6.88;2.38;;;33.40;28.70;;;;;;5060265;28;20500;-75
2022/07/18 10:11:49;;;;;;;9.07;2.50;;;33.40;28.60;;;;;;5059708;28;20044;-72
2022/07/18 10:14:14;;;;;;;11.23;2.55;;;33.60;28.90;;;;;;5061202;28;20403;-74
2022/07/18 10:16:42;;;;;;;10.32;2.20;;;33.70;28.40;;;;;;5060904;28;20067;-72
2022/07/18 10:19:07;;;;;;;4.68;2.22;;;33.60;27.80;;;;;;5059653;28;20041;-73
2022/07/18 10:21:33;;;;;;;9.73;2.28;;;33.70;27.20;;;;;;5057582;28;20083;-72
2022/07/18 10:24:01;;;;;;;6.95;2.25;;;33.80;27.60;;;;;;5064525;28;20029;-71
2022/07/18 10:26:29;;;;;;;6.75;2.17;;;33.90;27.90;;;;;;5063896;28;20165;-72
2022/07/18 10:31:24;;;;;;;5.88;2.15;;;34.00;27.80;;;;;;5062076;28;20124;-72
2022/07/18 10:33:51;;;;;;;7.72;1.90;;;34.00;26.90;;;;;;5051853;28;20037;-72
2022/07/18 10:36:22;;;;;;;6.68;2.17;;;34.10;27.00;;;;;;5054196;28;20761;-75
2022/07/18 10:39:20;;;;;;;5.40;2.40;;;34.20;27.00;;;;;;5058635;28;20079;-75
2022/07/18 10:41:46;;;;;;;7.93;2.47;;;34.10;26.60;;;;;;5057577;28;20036;-72
2022/07/18 10:44:27;;;;;;;5.05;2.45;;;34.10;26.50;;;;;;5056396;28;20396;-75
2022/07/18 10:47:09;;;;;;;5.75;1.98;;;34.40;26.90;;;;;;5059507;28;20045;-71
2022/07/18 10:49:47;;;;;;;4.55;1.90;;;34.50;25.60;;;;;;5059093;28;20120;-71
2022/07/18 10:52:27;;;;;;;7.65;2.55;;;34.50;25.20;;;;;;5061585;28;20545;-71
2022/07/18 10:55:05;;;;;;;5.57;2.10;;;34.30;25.50;;;;;;5059087;28;20111;-72
2022/07/18 10:57:38;;;;;;;8.07;2.00;;;34.30;26.30;;;;;;5055166;28;20118;-71
2022/07/18 11:00:13;;;;;;;5.93;2.72;;;34.50;25.80;;;;;;5058295;28;20032;-71
2022/07/18 11:02:43;;;;;;;6.88;2.40;;;34.50;25.00;;;;;;5064036;28;20043;-71
2022/07/18 11:05:26;;;;;;;6.13;2.13;;;34.70;25.60;;;;;;5054544;28;20051;-74
2022/07/18 11:08:01;;;;;;;5.10;2.10;;;35.00;24.60;;;;;;5056121;28;20119;-72
2022/07/18 11:10:46;;;;;;;5.45;1.95;;;34.90;25.70;;;;;;5065802;28;20052;-72
2022/07/18 11:13:27;;;;;;;6.72;2.25;;;35.00;25.10;;;;;;5063229;28;20041;-73
2022/07/18 11:16:00;;;;;;;7.80;2.00;;;35.10;25.00;;;;;;5061181;28;20439;-72
2022/07/18 11:18:26;;;;;;;5.63;2.75;;;35.00;24.90;;;;;;5054827;28;20044;-72
2022/07/18 11:20:52;;;;;;;6.07;2.05;;;35.10;24.60;;;;;;5060578;28;20062;-73
2022/07/18 11:23:22;;;;;;;5.18;2.20;;;35.00;24.60;;;;;;5057788;28;20044;-72
2022/07/18 11:25:57;;;;;;;4.05;2.00;;;35.00;25.20;;;;;;5055693;28;20047;-73
2022/07/18 11:28:25;;;;;;;8.95;2.17;;;35.10;25.10;;;;;;5058000;28;20591;-72
2022/07/18 11:31:06;;;;;;;6.38;1.85;;;35.00;24.80;;;;;;5061703;28;20041;-74
2022/07/18 11:33:36;;;;;;;5.40;2.00;;;34.90;24.50;;;;;;5061902;28;20067;-76
2022/07/18 11:36:10;;;;;;;5.15;2.10;;;34.80;24.60;;;;;;5058297;28;20028;-74
2022/07/18 11:38:58;;;;;;;5.63;1.90;;;35.20;25.00;;;;;;5058354;28;20581;-71
2022/07/18 11:41:25;;;;;;;6.32;2.17;;;35.40;25.00;;;;;;5058757;28;20077;-72
2022/07/18 11:43:53;;;;;;;3.78;1.80;;;35.10;24.20;;;;;;5061878;28;20098;-71
2022/07/18 11:46:22;;;;;;;4.53;1.92;;;35.50;24.50;;;;;;5058877;28;20454;-73
2022/07/18 11:48:57;;;;;;;5.55;2.17;;;35.70;24.60;;;;;;5062797;28;20032;-72
2022/07/18 11:51:23;;;;;;;5.68;2.15;;;35.80;23.30;;;;;;5053615;28;20028;-71
2022/07/18 11:53:53;;;;;;;4.30;1.98;;;35.90;23.60;;;;;;5057610;28;20416;-71
2022/07/18 11:56:22;;;;;;;8.10;2.30;;;35.90;23.50;;;;;;5064744;28;20048;-71
2022/07/18 11:58:49;;;;;;;6.32;2.40;;;35.70;22.90;;;;;;5065707;28;20045;-71
2022/07/18 12:01:16;;;;;;;6.50;1.90;;;35.40;23.50;;;;;;5060563;28;24452;-71
2022/07/18 12:03:45;;;;;;;7.05;2.05;;;35.50;23.10;;;;;;5071395;28;20045;-75
2022/07/18 12:06:18;;;;;;;5.95;2.10;;;35.50;23.60;;;;;;5056017;28;20056;-72
2022/07/18 12:08:47;;;;;;;5.40;2.10;;;35.70;23.60;;;;;;5061790;28;20702;-72
2022/07/18 12:11:35;;;;;;;8.40;2.40;;;35.80;23.40;;;;;;5061948;28;20033;-71
2022/07/18 12:14:09;;;;;;;8.27;2.05;;;36.10;23.40;;;;;;5050008;28;20369;-74
2022/07/18 12:16:36;;;;;;;5.63;2.40;;;36.10;23.10;;;;;;5055276;28;20045;-72
2022/07/18 12:19:16;;;;;;;5.35;2.17;;;36.20;22.10;;;;;;5059062;28;20115;-72
2022/07/18 12:21:43;;;;;;;4.45;2.00;;;36.20;22.40;;;;;;5059502;28;20033;-74
2022/07/18 12:24:33;;;;;;;7.78;2.30;;;36.20;23.10;;;;;;5053604;28;20036;-76
2022/07/18 12:27:13;;;;;;;6.57;2.00;;;36.30;22.60;;;;;;5057602;28;20036;-72
2022/07/18 12:29:55;;;;;;;7.97;1.90;;;36.40;22.20;;;;;;5062602;28;20068;-73
2022/07/18 12:32:27;;;;;;;7.32;2.33;;;36.00;22.20;;;;;;5058952;28;20124;-73
2022/07/18 12:34:55;;;;;;;7.95;1.88;;;35.70;22.90;;;;;;5058793;28;20028;-72
2022/07/18 12:37:25;;;;;;;5.55;2.00;;;35.50;23.00;;;;;;5055859;28;20127;-72
2022/07/18 12:40:09;;;;;;;10.30;2.35;;;35.80;23.60;;;;;;5063042;28;20083;-72
2022/07/18 12:42:36;;;;;;;;;;;36.10;22.30;;;;;;5054749;28;20090;-74
2022/07/18 12:45:04;;;;;;;7.72;1.98;;;36.20;22.80;;;;;;5056771;28;19912;-74
2022/07/18 12:47:30;;;;;;;6.45;1.95;;;36.50;22.30;;;;;;5059714;28;20063;-72
2022/07/18 12:49:56;;;;;;;5.88;2.35;;;36.50;21.80;;;;;;5058937;28;20032;-73
2022/07/18 12:52:22;;;;;;;4.93;1.95;;;36.50;21.30;;;;;;5055176;28;20059;-72